sensor_id;sensor_type;location;lat;lon;timestamp;P1;durP1;ratioP1;P2;durP2;ratioP2
22965;SDS011;11649;48.090;9.754;2023-04-25T00:01:51;4.68;;;3.03;;
22965;SDS011;11649;48.090;9.754;2023-04-25T00:04:18;3.08;;;2.55;;
22965;SDS011;11649;48.090;9.754;2023-04-25T00:06:45;4.45;;;3.30;;
22965;SDS011;11649;48.090;9.754;2023-04-25T00:09:12;5.32;;;3.22;;
22965;SDS011;11649;48.090;9.754;2023-04-25T00:11:39;4.13;;;3.20;;
22965;SDS011;11649;48.090;9.754;2023-04-25T00:14:06;5.60;;;3.42;;
22965;SDS011;11649;48.090;9.754;2023-04-25T00:16:33;4.32;;;3.30;;
22965;SDS011;11649;48.090;9.754;2023-04-25T00:19:02;4.68;;;3.20;;
22965;SDS011;11649;48.090;9.754;2023-04-25T00:21:30;3.83;;;3.00;;
22965;SDS011;11649;48.090;9.754;2023-04-25T00:23:57;4.53;;;2.95;;
22965;SDS011;11649;48.090;9.754;2023-04-25T00:26:24;3.17;;;2.88;;
22965;SDS011;11649;48.090;9.754;2023-04-25T00:28:51;7.65;;;3.20;;
22965;SDS011;11649;48.090;9.754;2023-04-25T00:31:18;5.43;;;2.80;;
22965;SDS011;11649;48.090;9.754;2023-04-25T00:33:45;3.80;;;3.20;;
22965;SDS011;11649;48.090;9.754;2023-04-25T00:36:12;3.78;;;3.30;;
22965;SDS011;11649;48.090;9.754;2023-04-25T00:38:39;4.13;;;3.30;;
22965;SDS011;11649;48.090;9.754;2023-04-25T00:41:06;4.80;;;3.60;;
22965;SDS011;11649;48.090;9.754;2023-04-25T00:43:33;4.63;;;3.28;;
22965;SDS011;11649;48.090;9.754;2023-04-25T00:46:02;7.00;;;3.72;;
22965;SDS011;11649;48.090;9.754;2023-04-25T00:48:29;5.97;;;3.30;;
22965;SDS011;11649;48.090;9.754;2023-04-25T00:50:57;4.75;;;3.40;;
22965;SDS011;11649;48.090;9.754;2023-04-25T00:53:26;8.80;;;3.92;;
22965;SDS011;11649;48.090;9.754;2023-04-25T00:55:54;6.07;;;2.67;;
22965;SDS011;11649;48.090;9.754;2023-04-25T00:58:21;7.18;;;2.65;;
22965;SDS011;11649;48.090;9.754;2023-04-25T01:00:49;3.67;;;2.58;;
22965;SDS011;11649;48.090;9.754;2023-04-25T01:03:18;6.03;;;2.92;;
22965;SDS011;11649;48.090;9.754;2023-04-25T01:05:48;3.83;;;2.80;;
22965;SDS011;11649;48.090;9.754;2023-04-25T01:08:16;5.07;;;3.50;;
22965;SDS011;11649;48.090;9.754;2023-04-25T01:10:43;6.88;;;4.65;;
22965;SDS011;11649;48.090;9.754;2023-04-25T01:13:10;9.20;;;5.03;;
22965;SDS011;11649;48.090;9.754;2023-04-25T01:15:37;7.78;;;5.03;;
22965;SDS011;11649;48.090;9.754;2023-04-25T01:18:04;10.65;;;5.18;;
22965;SDS011;11649;48.090;9.754;2023-04-25T01:20:33;8.88;;;4.68;;
22965;SDS011;11649;48.090;9.754;2023-04-25T01:23:00;9.68;;;5.80;;
22965;SDS011;11649;48.090;9.754;2023-04-25T01:25:29;13.55;;;7.25;;
22965;SDS011;11649;48.090;9.754;2023-04-25T01:27:57;13.00;;;7.40;;
22965;SDS011;11649;48.090;9.754;2023-04-25T01:30:25;11.52;;;7.35;;
22965;SDS011;11649;48.090;9.754;2023-04-25T01:32:54;14.30;;;7.45;;
22965;SDS011;11649;48.090;9.754;2023-04-25T01:35:22;11.68;;;7.22;;
22965;SDS011;11649;48.090;9.754;2023-04-25T01:37:50;12.40;;;7.15;;
22965;SDS011;11649;48.090;9.754;2023-04-25T01:40:18;8.68;;;6.03;;
22965;SDS011;11649;48.090;9.754;2023-04-25T01:42:47;14.00;;;6.82;;
22965;SDS011;11649;48.090;9.754;2023-04-25T01:45:13;12.82;;;7.60;;
22965;SDS011;11649;48.090;9.754;2023-04-25T01:47:40;13.38;;;8.38;;
22965;SDS011;11649;48.090;9.754;2023-04-25T01:50:09;13.90;;;8.60;;
22965;SDS011;11649;48.090;9.754;2023-04-25T01:52:36;15.60;;;8.88;;
22965;SDS011;11649;48.090;9.754;2023-04-25T01:55:03;16.20;;;9.65;;
22965;SDS011;11649;48.090;9.754;2023-04-25T01:57:30;17.67;;;9.20;;
22965;SDS011;11649;48.090;9.754;2023-04-25T01:59:58;18.15;;;10.27;;
22965;SDS011;11649;48.090;9.754;2023-04-25T02:02:27;16.13;;;9.73;;
22965;SDS011;11649;48.090;9.754;2023-04-25T02:04:59;15.55;;;9.35;;
22965;SDS011;11649;48.090;9.754;2023-04-25T02:07:40;15.23;;;9.60;;
22965;SDS011;11649;48.090;9.754;2023-04-25T02:10:11;18.33;;;9.80;;
22965;SDS011;11649;48.090;9.754;2023-04-25T02:12:47;16.25;;;10.05;;
22965;SDS011;11649;48.090;9.754;2023-04-25T02:15:38;12.52;;;7.65;;
22965;SDS011;11649;48.090;9.754;2023-04-25T02:18:16;16.90;;;8.80;;
22965;SDS011;11649;48.090;9.754;2023-04-25T02:24:13;14.52;;;9.18;;
22965;SDS011;11649;48.090;9.754;2023-04-25T02:26:51;15.45;;;9.30;;
22965;SDS011;11649;48.090;9.754;2023-04-25T02:29:19;14.00;;;8.30;;
22965;SDS011;11649;48.090;9.754;2023-04-25T02:31:46;18.23;;;9.73;;
22965;SDS011;11649;48.090;9.754;2023-04-25T02:34:12;17.48;;;9.52;;
22965;SDS011;11649;48.090;9.754;2023-04-25T02:36:39;12.18;;;8.50;;
22965;SDS011;11649;48.090;9.754;2023-04-25T02:39:06;12.77;;;8.10;;
22965;SDS011;11649;48.090;9.754;2023-04-25T02:41:33;15.85;;;7.95;;
22965;SDS011;11649;48.090;9.754;2023-04-25T02:44:00;12.05;;;8.27;;
22965;SDS011;11649;48.090;9.754;2023-04-25T02:46:26;10.82;;;8.02;;
22965;SDS011;11649;48.090;9.754;2023-04-25T02:49:04;12.32;;;8.50;;
22965;SDS011;11649;48.090;9.754;2023-04-25T02:51:31;12.63;;;9.07;;
22965;SDS011;11649;48.090;9.754;2023-04-25T02:53:58;14.48;;;9.65;;
22965;SDS011;11649;48.090;9.754;2023-04-25T02:56:25;14.88;;;9.30;;
22965;SDS011;11649;48.090;9.754;2023-04-25T02:58:53;12.55;;;8.93;;
22965;SDS011;11649;48.090;9.754;2023-04-25T03:01:20;12.07;;;8.23;;
22965;SDS011;11649;48.090;9.754;2023-04-25T03:03:46;12.88;;;8.30;;
22965;SDS011;11649;48.090;9.754;2023-04-25T03:06:14;11.63;;;7.18;;
22965;SDS011;11649;48.090;9.754;2023-04-25T03:08:41;9.60;;;7.25;;
22965;SDS011;11649;48.090;9.754;2023-04-25T03:11:09;11.32;;;6.80;;
22965;SDS011;11649;48.090;9.754;2023-04-25T03:13:36;11.55;;;7.40;;
22965;SDS011;11649;48.090;9.754;2023-04-25T03:16:03;13.13;;;7.32;;
22965;SDS011;11649;48.090;9.754;2023-04-25T03:18:30;15.38;;;7.72;;
22965;SDS011;11649;48.090;9.754;2023-04-25T03:20:57;9.82;;;7.20;;
22965;SDS011;11649;48.090;9.754;2023-04-25T03:23:24;13.82;;;7.30;;
22965;SDS011;11649;48.090;9.754;2023-04-25T03:25:52;13.60;;;6.80;;
22965;SDS011;11649;48.090;9.754;2023-04-25T03:28:18;9.02;;;6.57;;
22965;SDS011;11649;48.090;9.754;2023-04-25T03:30:46;8.48;;;5.45;;
22965;SDS011;11649;48.090;9.754;2023-04-25T03:33:12;12.85;;;6.05;;
22965;SDS011;11649;48.090;9.754;2023-04-25T03:35:39;12.85;;;6.70;;
22965;SDS011;11649;48.090;9.754;2023-04-25T03:38:06;14.20;;;7.43;;
22965;SDS011;11649;48.090;9.754;2023-04-25T03:40:33;8.52;;;6.10;;
22965;SDS011;11649;48.090;9.754;2023-04-25T03:43:00;10.88;;;6.75;;
22965;SDS011;11649;48.090;9.754;2023-04-25T03:45:26;9.20;;;5.72;;
22965;SDS011;11649;48.090;9.754;2023-04-25T03:47:53;10.38;;;6.30;;
22965;SDS011;11649;48.090;9.754;2023-04-25T03:50:20;8.63;;;5.60;;
22965;SDS011;11649;48.090;9.754;2023-04-25T03:52:47;10.45;;;5.88;;
22965;SDS011;11649;48.090;9.754;2023-04-25T03:55:13;7.10;;;5.18;;
22965;SDS011;11649;48.090;9.754;2023-04-25T03:57:40;7.95;;;4.88;;
22965;SDS011;11649;48.090;9.754;2023-04-25T04:00:07;5.30;;;4.28;;
22965;SDS011;11649;48.090;9.754;2023-04-25T04:02:34;6.32;;;4.05;;
22965;SDS011;11649;48.090;9.754;2023-04-25T04:05:03;8.40;;;4.35;;
22965;SDS011;11649;48.090;9.754;2023-04-25T04:07:31;8.88;;;5.20;;
22965;SDS011;11649;48.090;9.754;2023-04-25T04:09:59;5.10;;;4.13;;
22965;SDS011;11649;48.090;9.754;2023-04-25T04:12:25;7.90;;;4.35;;
22965;SDS011;11649;48.090;9.754;2023-04-25T04:14:52;7.25;;;5.05;;
22965;SDS011;11649;48.090;9.754;2023-04-25T04:17:19;10.27;;;5.03;;
22965;SDS011;11649;48.090;9.754;2023-04-25T04:19:45;8.27;;;5.35;;
22965;SDS011;11649;48.090;9.754;2023-04-25T04:22:12;7.28;;;5.22;;
22965;SDS011;11649;48.090;9.754;2023-04-25T04:24:39;5.65;;;4.20;;
22965;SDS011;11649;48.090;9.754;2023-04-25T04:27:06;7.20;;;5.30;;
22965;SDS011;11649;48.090;9.754;2023-04-25T04:29:33;10.13;;;6.88;;
22965;SDS011;11649;48.090;9.754;2023-04-25T04:31:59;7.68;;;5.53;;
22965;SDS011;11649;48.090;9.754;2023-04-25T04:34:27;9.85;;;6.20;;
22965;SDS011;11649;48.090;9.754;2023-04-25T04:36:54;11.05;;;5.88;;
22965;SDS011;11649;48.090;9.754;2023-04-25T04:39:21;8.38;;;5.53;;
22965;SDS011;11649;48.090;9.754;2023-04-25T04:41:48;8.43;;;5.57;;
22965;SDS011;11649;48.090;9.754;2023-04-25T04:44:15;12.10;;;8.65;;
22965;SDS011;11649;48.090;9.754;2023-04-25T04:46:41;15.90;;;10.45;;
22965;SDS011;11649;48.090;9.754;2023-04-25T04:49:09;10.98;;;8.40;;
22965;SDS011;11649;48.090;9.754;2023-04-25T04:51:37;13.48;;;8.73;;
22965;SDS011;11649;48.090;9.754;2023-04-25T04:54:04;10.20;;;7.10;;
22965;SDS011;11649;48.090;9.754;2023-04-25T04:56:31;8.13;;;6.28;;
22965;SDS011;11649;48.090;9.754;2023-04-25T04:58:58;10.27;;;5.60;;
22965;SDS011;11649;48.090;9.754;2023-04-25T05:01:26;10.27;;;5.90;;
22965;SDS011;11649;48.090;9.754;2023-04-25T05:03:52;5.30;;;4.53;;
22965;SDS011;11649;48.090;9.754;2023-04-25T05:06:20;5.70;;;4.22;;
22965;SDS011;11649;48.090;9.754;2023-04-25T05:08:47;8.55;;;4.63;;
22965;SDS011;11649;48.090;9.754;2023-04-25T05:11:15;8.13;;;4.53;;
22965;SDS011;11649;48.090;9.754;2023-04-25T05:13:41;6.68;;;5.13;;
22965;SDS011;11649;48.090;9.754;2023-04-25T05:16:08;9.02;;;5.35;;
22965;SDS011;11649;48.090;9.754;2023-04-25T05:18:35;8.63;;;5.10;;
22965;SDS011;11649;48.090;9.754;2023-04-25T05:21:02;10.48;;;4.70;;
22965;SDS011;11649;48.090;9.754;2023-04-25T05:23:29;7.78;;;5.10;;
22965;SDS011;11649;48.090;9.754;2023-04-25T05:25:58;6.95;;;4.80;;
22965;SDS011;11649;48.090;9.754;2023-04-25T05:28:25;7.53;;;4.78;;
22965;SDS011;11649;48.090;9.754;2023-04-25T05:30:52;6.50;;;5.22;;
22965;SDS011;11649;48.090;9.754;2023-04-25T05:33:19;15.05;;;6.97;;
22965;SDS011;11649;48.090;9.754;2023-04-25T05:35:46;8.48;;;5.30;;
22965;SDS011;11649;48.090;9.754;2023-04-25T05:38:13;7.65;;;5.15;;
22965;SDS011;11649;48.090;9.754;2023-04-25T05:40:39;8.23;;;5.50;;
22965;SDS011;11649;48.090;9.754;2023-04-25T05:43:07;6.80;;;5.75;;
22965;SDS011;11649;48.090;9.754;2023-04-25T05:45:34;9.38;;;6.15;;
22965;SDS011;11649;48.090;9.754;2023-04-25T05:48:01;8.65;;;5.57;;
22965;SDS011;11649;48.090;9.754;2023-04-25T05:50:28;10.23;;;5.60;;
22965;SDS011;11649;48.090;9.754;2023-04-25T05:52:54;7.43;;;5.20;;
22965;SDS011;11649;48.090;9.754;2023-04-25T05:55:21;9.35;;;5.45;;
22965;SDS011;11649;48.090;9.754;2023-04-25T05:57:48;9.25;;;4.65;;
22965;SDS011;11649;48.090;9.754;2023-04-25T06:00:16;8.45;;;4.80;;
22965;SDS011;11649;48.090;9.754;2023-04-25T06:02:44;9.88;;;4.40;;
22965;SDS011;11649;48.090;9.754;2023-04-25T06:05:12;9.88;;;5.00;;
22965;SDS011;11649;48.090;9.754;2023-04-25T06:07:39;11.13;;;5.70;;
22965;SDS011;11649;48.090;9.754;2023-04-25T06:10:05;8.25;;;5.68;;
22965;SDS011;11649;48.090;9.754;2023-04-25T06:12:33;13.15;;;5.82;;
22965;SDS011;11649;48.090;9.754;2023-04-25T06:15:00;8.48;;;5.00;;
22965;SDS011;11649;48.090;9.754;2023-04-25T06:17:28;8.60;;;5.07;;
22965;SDS011;11649;48.090;9.754;2023-04-25T06:19:55;8.77;;;5.00;;
22965;SDS011;11649;48.090;9.754;2023-04-25T06:22:22;7.38;;;5.13;;
22965;SDS011;11649;48.090;9.754;2023-04-25T06:24:48;9.60;;;5.30;;
22965;SDS011;11649;48.090;9.754;2023-04-25T06:27:15;11.00;;;5.50;;
22965;SDS011;11649;48.090;9.754;2023-04-25T06:29:42;7.13;;;5.40;;
22965;SDS011;11649;48.090;9.754;2023-04-25T06:32:09;10.00;;;5.22;;
22965;SDS011;11649;48.090;9.754;2023-04-25T06:34:35;6.43;;;4.53;;
22965;SDS011;11649;48.090;9.754;2023-04-25T06:37:02;9.98;;;4.72;;
22965;SDS011;11649;48.090;9.754;2023-04-25T06:39:29;6.93;;;4.50;;
22965;SDS011;11649;48.090;9.754;2023-04-25T06:41:56;5.97;;;4.00;;
22965;SDS011;11649;48.090;9.754;2023-04-25T06:44:22;7.28;;;3.80;;
22965;SDS011;11649;48.090;9.754;2023-04-25T06:46:50;6.05;;;3.67;;
22965;SDS011;11649;48.090;9.754;2023-04-25T06:49:17;5.97;;;3.63;;
22965;SDS011;11649;48.090;9.754;2023-04-25T06:51:44;7.55;;;3.53;;
22965;SDS011;11649;48.090;9.754;2023-04-25T06:54:11;7.03;;;3.28;;
22965;SDS011;11649;48.090;9.754;2023-04-25T06:56:38;5.85;;;3.22;;
22965;SDS011;11649;48.090;9.754;2023-04-25T06:59:05;7.90;;;3.35;;
22965;SDS011;11649;48.090;9.754;2023-04-25T07:01:32;6.15;;;3.00;;
22965;SDS011;11649;48.090;9.754;2023-04-25T07:03:58;4.70;;;2.85;;
22965;SDS011;11649;48.090;9.754;2023-04-25T07:06:25;5.45;;;3.40;;
22965;SDS011;11649;48.090;9.754;2023-04-25T07:08:53;6.15;;;3.10;;
22965;SDS011;11649;48.090;9.754;2023-04-25T07:11:21;5.70;;;3.63;;
22965;SDS011;11649;48.090;9.754;2023-04-25T07:13:48;4.03;;;2.63;;
22965;SDS011;11649;48.090;9.754;2023-04-25T07:16:15;6.78;;;3.08;;
22965;SDS011;11649;48.090;9.754;2023-04-25T07:18:42;6.10;;;3.38;;
22965;SDS011;11649;48.090;9.754;2023-04-25T07:21:09;7.72;;;3.40;;
22965;SDS011;11649;48.090;9.754;2023-04-25T07:23:36;5.57;;;2.95;;
22965;SDS011;11649;48.090;9.754;2023-04-25T07:26:03;5.53;;;2.60;;
22965;SDS011;11649;48.090;9.754;2023-04-25T07:28:30;5.78;;;2.80;;
22965;SDS011;11649;48.090;9.754;2023-04-25T07:30:57;6.88;;;2.90;;
22965;SDS011;11649;48.090;9.754;2023-04-25T07:33:24;5.72;;;2.60;;
22965;SDS011;11649;48.090;9.754;2023-04-25T07:35:51;7.97;;;3.53;;
22965;SDS011;11649;48.090;9.754;2023-04-25T07:38:19;9.05;;;3.10;;
22965;SDS011;11649;48.090;9.754;2023-04-25T07:40:46;4.45;;;2.60;;
22965;SDS011;11649;48.090;9.754;2023-04-25T07:43:16;5.07;;;2.50;;
22965;SDS011;11649;48.090;9.754;2023-04-25T07:45:46;4.80;;;2.85;;
22965;SDS011;11649;48.090;9.754;2023-04-25T07:48:16;6.57;;;3.00;;
22965;SDS011;11649;48.090;9.754;2023-04-25T07:50:46;8.00;;;3.40;;
22965;SDS011;11649;48.090;9.754;2023-04-25T07:53:13;4.43;;;2.80;;
22965;SDS011;11649;48.090;9.754;2023-04-25T07:55:40;8.80;;;3.17;;
22965;SDS011;11649;48.090;9.754;2023-04-25T07:58:07;5.05;;;2.53;;
22965;SDS011;11649;48.090;9.754;2023-04-25T08:00:34;4.68;;;2.75;;
22965;SDS011;11649;48.090;9.754;2023-04-25T08:03:01;5.13;;;2.72;;
22965;SDS011;11649;48.090;9.754;2023-04-25T08:05:29;5.45;;;2.78;;
22965;SDS011;11649;48.090;9.754;2023-04-25T08:07:56;3.60;;;2.58;;
22965;SDS011;11649;48.090;9.754;2023-04-25T08:10:23;4.72;;;2.47;;
22965;SDS011;11649;48.090;9.754;2023-04-25T08:12:49;5.75;;;2.97;;
22965;SDS011;11649;48.090;9.754;2023-04-25T08:15:16;7.63;;;3.80;;
22965;SDS011;11649;48.090;9.754;2023-04-25T08:17:43;6.55;;;2.53;;
22965;SDS011;11649;48.090;9.754;2023-04-25T08:20:10;20.35;;;13.88;;
22965;SDS011;11649;48.090;9.754;2023-04-25T08:22:37;24.00;;;17.50;;
22965;SDS011;11649;48.090;9.754;2023-04-25T08:25:04;22.90;;;16.98;;
22965;SDS011;11649;48.090;9.754;2023-04-25T08:27:31;6.00;;;3.00;;
22965;SDS011;11649;48.090;9.754;2023-04-25T08:29:58;6.63;;;4.20;;
22965;SDS011;11649;48.090;9.754;2023-04-25T08:32:25;10.07;;;7.28;;
22965;SDS011;11649;48.090;9.754;2023-04-25T08:34:54;4.40;;;2.90;;
22965;SDS011;11649;48.090;9.754;2023-04-25T08:37:21;6.60;;;3.55;;
22965;SDS011;11649;48.090;9.754;2023-04-25T08:39:48;11.82;;;7.72;;
22965;SDS011;11649;48.090;9.754;2023-04-25T08:42:18;6.63;;;4.25;;
22965;SDS011;11649;48.090;9.754;2023-04-25T08:44:47;6.57;;;3.42;;
22965;SDS011;11649;48.090;9.754;2023-04-25T08:47:15;5.28;;;3.10;;
22965;SDS011;11649;48.090;9.754;2023-04-25T08:49:45;4.72;;;2.15;;
22965;SDS011;11649;48.090;9.754;2023-04-25T08:52:13;5.78;;;2.28;;
22965;SDS011;11649;48.090;9.754;2023-04-25T08:54:41;3.10;;;1.85;;
22965;SDS011;11649;48.090;9.754;2023-04-25T08:57:14;6.57;;;3.30;;
22965;SDS011;11649;48.090;9.754;2023-04-25T08:59:41;5.45;;;3.00;;
22965;SDS011;11649;48.090;9.754;2023-04-25T09:02:12;3.78;;;2.60;;
22965;SDS011;11649;48.090;9.754;2023-04-25T09:04:44;8.45;;;3.55;;
22965;SDS011;11649;48.090;9.754;2023-04-25T09:07:11;5.00;;;3.13;;
22965;SDS011;11649;48.090;9.754;2023-04-25T09:09:38;5.40;;;3.13;;
22965;SDS011;11649;48.090;9.754;2023-04-25T09:12:05;5.72;;;3.05;;
22965;SDS011;11649;48.090;9.754;2023-04-25T09:14:32;4.72;;;3.10;;
22965;SDS011;11649;48.090;9.754;2023-04-25T09:17:00;5.07;;;3.40;;
22965;SDS011;11649;48.090;9.754;2023-04-25T09:19:29;3.38;;;2.80;;
22965;SDS011;11649;48.090;9.754;2023-04-25T09:22:06;5.95;;;2.58;;
22965;SDS011;11649;48.090;9.754;2023-04-25T09:24:38;5.70;;;3.30;;
22965;SDS011;11649;48.090;9.754;2023-04-25T09:27:09;11.48;;;3.80;;
22965;SDS011;11649;48.090;9.754;2023-04-25T09:29:37;7.10;;;3.13;;
22965;SDS011;11649;48.090;9.754;2023-04-25T09:34:49;5.13;;;3.20;;
22965;SDS011;11649;48.090;9.754;2023-04-25T09:39:45;7.07;;;4.35;;
22965;SDS011;11649;48.090;9.754;2023-04-25T09:42:15;6.50;;;4.70;;
22965;SDS011;11649;48.090;9.754;2023-04-25T09:44:46;7.60;;;3.40;;
22965;SDS011;11649;48.090;9.754;2023-04-25T09:47:14;5.47;;;3.00;;
22965;SDS011;11649;48.090;9.754;2023-04-25T09:49:42;3.38;;;2.90;;
22965;SDS011;11649;48.090;9.754;2023-04-25T09:52:13;5.63;;;3.70;;
22965;SDS011;11649;48.090;9.754;2023-04-25T09:54:41;5.63;;;3.72;;
22965;SDS011;11649;48.090;9.754;2023-04-25T09:57:19;5.90;;;3.55;;
22965;SDS011;11649;48.090;9.754;2023-04-25T09:59:48;5.88;;;2.78;;
22965;SDS011;11649;48.090;9.754;2023-04-25T10:02:16;3.70;;;2.78;;
22965;SDS011;11649;48.090;9.754;2023-04-25T10:05:02;4.60;;;2.08;;
22965;SDS011;11649;48.090;9.754;2023-04-25T10:07:31;1.92;;;1.60;;
22965;SDS011;11649;48.090;9.754;2023-04-25T10:10:02;2.53;;;2.00;;
22965;SDS011;11649;48.090;9.754;2023-04-25T10:12:30;2.67;;;1.85;;
22965;SDS011;11649;48.090;9.754;2023-04-25T10:14:59;2.00;;;1.80;;
22965;SDS011;11649;48.090;9.754;2023-04-25T10:17:26;2.47;;;1.90;;
22965;SDS011;11649;48.090;9.754;2023-04-25T10:19:56;4.70;;;2.30;;
22965;SDS011;11649;48.090;9.754;2023-04-25T10:22:31;14.75;;;9.32;;
22965;SDS011;11649;48.090;9.754;2023-04-25T10:25:01;3.92;;;2.95;;
22965;SDS011;11649;48.090;9.754;2023-04-25T10:27:30;2.58;;;2.30;;
22965;SDS011;11649;48.090;9.754;2023-04-25T10:30:15;3.85;;;3.17;;
22965;SDS011;11649;48.090;9.754;2023-04-25T10:32:42;4.47;;;3.65;;
22965;SDS011;11649;48.090;9.754;2023-04-25T10:41:01;3.90;;;3.20;;
22965;SDS011;11649;48.090;9.754;2023-04-25T10:43:36;4.18;;;3.40;;
22965;SDS011;11649;48.090;9.754;2023-04-25T10:46:34;5.50;;;4.63;;
22965;SDS011;11649;48.090;9.754;2023-04-25T10:49:02;5.00;;;4.10;;
22965;SDS011;11649;48.090;9.754;2023-04-25T10:51:31;7.15;;;5.03;;
22965;SDS011;11649;48.090;9.754;2023-04-25T10:54:18;5.13;;;3.95;;
22965;SDS011;11649;48.090;9.754;2023-04-25T10:56:48;4.35;;;3.63;;
22965;SDS011;11649;48.090;9.754;2023-04-25T10:59:15;4.63;;;3.83;;
22965;SDS011;11649;48.090;9.754;2023-04-25T11:01:47;4.35;;;3.80;;
22965;SDS011;11649;48.090;9.754;2023-04-25T11:04:21;6.07;;;4.72;;
22965;SDS011;11649;48.090;9.754;2023-04-25T11:09:49;5.90;;;4.30;;
22965;SDS011;11649;48.090;9.754;2023-04-25T11:12:16;7.60;;;5.00;;
22965;SDS011;11649;48.090;9.754;2023-04-25T11:14:43;10.18;;;6.55;;
22965;SDS011;11649;48.090;9.754;2023-04-25T11:17:10;11.18;;;7.07;;
22965;SDS011;11649;48.090;9.754;2023-04-25T11:19:37;49.55;;;22.05;;
22965;SDS011;11649;48.090;9.754;2023-04-25T11:22:04;21.23;;;10.93;;
22965;SDS011;11649;48.090;9.754;2023-04-25T11:24:32;23.58;;;11.68;;
22965;SDS011;11649;48.090;9.754;2023-04-25T11:27:03;4.72;;;4.20;;
22965;SDS011;11649;48.090;9.754;2023-04-25T11:29:32;5.53;;;2.92;;
22965;SDS011;11649;48.090;9.754;2023-04-25T11:32:00;2.95;;;2.65;;
22965;SDS011;11649;48.090;9.754;2023-04-25T11:34:28;2.90;;;2.55;;
22965;SDS011;11649;48.090;9.754;2023-04-25T11:37:00;2.83;;;2.60;;
22965;SDS011;11649;48.090;9.754;2023-04-25T11:39:28;2.80;;;2.42;;
22965;SDS011;11649;48.090;9.754;2023-04-25T11:41:56;3.03;;;2.50;;
22965;SDS011;11649;48.090;9.754;2023-04-25T11:44:22;2.90;;;2.60;;
22965;SDS011;11649;48.090;9.754;2023-04-25T11:46:49;2.40;;;2.20;;
22965;SDS011;11649;48.090;9.754;2023-04-25T11:49:16;4.20;;;3.40;;
22965;SDS011;11649;48.090;9.754;2023-04-25T11:51:46;2.22;;;2.03;;
22965;SDS011;11649;48.090;9.754;2023-04-25T11:54:14;2.80;;;2.30;;
22965;SDS011;11649;48.090;9.754;2023-04-25T11:56:44;2.28;;;1.80;;
22965;SDS011;11649;48.090;9.754;2023-04-25T11:59:12;1.70;;;1.60;;
22965;SDS011;11649;48.090;9.754;2023-04-25T12:01:40;2.33;;;1.70;;
22965;SDS011;11649;48.090;9.754;2023-04-25T12:04:14;1.80;;;1.70;;
22965;SDS011;11649;48.090;9.754;2023-04-25T12:06:50;1.45;;;1.10;;
22965;SDS011;11649;48.090;9.754;2023-04-25T12:09:19;1.10;;;1.00;;
22965;SDS011;11649;48.090;9.754;2023-04-25T12:11:54;0.90;;;0.90;;
22965;SDS011;11649;48.090;9.754;2023-04-25T12:14:22;0.80;;;0.80;;
22965;SDS011;11649;48.090;9.754;2023-04-25T12:17:00;0.50;;;0.50;;
22965;SDS011;11649;48.090;9.754;2023-04-25T12:19:35;0.80;;;0.80;;
22965;SDS011;11649;48.090;9.754;2023-04-25T12:22:03;1.27;;;0.80;;
22965;SDS011;11649;48.090;9.754;2023-04-25T12:24:45;0.40;;;0.40;;
22965;SDS011;11649;48.090;9.754;2023-04-25T12:27:13;0.40;;;0.40;;
22965;SDS011;11649;48.090;9.754;2023-04-25T12:29:49;0.40;;;0.40;;
22965;SDS011;11649;48.090;9.754;2023-04-25T12:32:20;0.30;;;0.30;;
22965;SDS011;11649;48.090;9.754;2023-04-25T12:34:47;0.38;;;0.38;;
22965;SDS011;11649;48.090;9.754;2023-04-25T12:37:14;0.20;;;0.20;;
22965;SDS011;11649;48.090;9.754;2023-04-25T12:39:41;0.30;;;0.30;;
22965;SDS011;11649;48.090;9.754;2023-04-25T12:42:08;0.35;;;0.35;;
22965;SDS011;11649;48.090;9.754;2023-04-25T12:44:38;0.98;;;0.80;;
22965;SDS011;11649;48.090;9.754;2023-04-25T12:47:06;0.40;;;0.20;;
22965;SDS011;11649;48.090;9.754;2023-04-25T12:49:33;0.30;;;0.30;;
22965;SDS011;11649;48.090;9.754;2023-04-25T12:52:00;0.40;;;0.40;;
22965;SDS011;11649;48.090;9.754;2023-04-25T12:54:26;1.02;;;0.30;;
22965;SDS011;11649;48.090;9.754;2023-04-25T12:56:53;0.30;;;0.30;;
22965;SDS011;11649;48.090;9.754;2023-04-25T12:59:21;1.10;;;0.70;;
22965;SDS011;11649;48.090;9.754;2023-04-25T13:01:47;0.32;;;0.32;;
22965;SDS011;11649;48.090;9.754;2023-04-25T13:04:14;0.20;;;0.20;;
22965;SDS011;11649;48.090;9.754;2023-04-25T13:06:42;0.28;;;0.20;;
22965;SDS011;11649;48.090;9.754;2023-04-25T13:09:09;0.30;;;0.30;;
22965;SDS011;11649;48.090;9.754;2023-04-25T13:11:38;0.38;;;0.30;;
22965;SDS011;11649;48.090;9.754;2023-04-25T13:14:05;0.75;;;0.40;;
22965;SDS011;11649;48.090;9.754;2023-04-25T13:16:32;0.30;;;0.30;;
22965;SDS011;11649;48.090;9.754;2023-04-25T13:18:59;0.30;;;0.30;;
22965;SDS011;11649;48.090;9.754;2023-04-25T13:21:26;0.38;;;0.30;;
22965;SDS011;11649;48.090;9.754;2023-04-25T13:23:53;0.30;;;0.30;;
22965;SDS011;11649;48.090;9.754;2023-04-25T13:26:20;0.40;;;0.40;;
22965;SDS011;11649;48.090;9.754;2023-04-25T13:28:47;0.85;;;0.38;;
22965;SDS011;11649;48.090;9.754;2023-04-25T13:31:14;0.35;;;0.35;;
22965;SDS011;11649;48.090;9.754;2023-04-25T13:33:40;0.43;;;0.43;;
22965;SDS011;11649;48.090;9.754;2023-04-25T13:36:07;0.30;;;0.30;;
22965;SDS011;11649;48.090;9.754;2023-04-25T13:38:34;0.40;;;0.40;;
22965;SDS011;11649;48.090;9.754;2023-04-25T13:41:01;0.30;;;0.30;;
22965;SDS011;11649;48.090;9.754;2023-04-25T13:43:27;0.30;;;0.30;;
22965;SDS011;11649;48.090;9.754;2023-04-25T13:45:54;0.20;;;0.20;;
22965;SDS011;11649;48.090;9.754;2023-04-25T13:48:21;0.40;;;0.30;;
22965;SDS011;11649;48.090;9.754;2023-04-25T13:50:49;0.30;;;0.30;;
22965;SDS011;11649;48.090;9.754;2023-04-25T13:53:15;0.20;;;0.20;;
22965;SDS011;11649;48.090;9.754;2023-04-25T13:55:42;0.30;;;0.30;;
22965;SDS011;11649;48.090;9.754;2023-04-25T13:58:09;0.40;;;0.30;;
22965;SDS011;11649;48.090;9.754;2023-04-25T14:00:37;0.30;;;0.30;;
22965;SDS011;11649;48.090;9.754;2023-04-25T14:03:05;0.30;;;0.30;;
22965;SDS011;11649;48.090;9.754;2023-04-25T14:05:34;0.30;;;0.30;;
22965;SDS011;11649;48.090;9.754;2023-04-25T14:08:05;0.35;;;0.35;;
22965;SDS011;11649;48.090;9.754;2023-04-25T14:10:36;0.30;;;0.30;;
22965;SDS011;11649;48.090;9.754;2023-04-25T14:13:03;0.90;;;0.30;;
22965;SDS011;11649;48.090;9.754;2023-04-25T14:15:32;0.20;;;0.20;;
22965;SDS011;11649;48.090;9.754;2023-04-25T14:18:00;0.40;;;0.40;;
22965;SDS011;11649;48.090;9.754;2023-04-25T14:20:28;0.45;;;0.45;;
22965;SDS011;11649;48.090;9.754;2023-04-25T14:22:55;0.30;;;0.30;;
22965;SDS011;11649;48.090;9.754;2023-04-25T14:25:24;0.40;;;0.40;;
22965;SDS011;11649;48.090;9.754;2023-04-25T14:27:52;0.30;;;0.30;;
22965;SDS011;11649;48.090;9.754;2023-04-25T14:30:19;0.57;;;0.50;;
22965;SDS011;11649;48.090;9.754;2023-04-25T14:32:47;0.38;;;0.38;;
22965;SDS011;11649;48.090;9.754;2023-04-25T14:35:17;0.40;;;0.40;;
22965;SDS011;11649;48.090;9.754;2023-04-25T14:37:44;0.30;;;0.30;;
22965;SDS011;11649;48.090;9.754;2023-04-25T14:40:11;0.20;;;0.20;;
22965;SDS011;11649;48.090;9.754;2023-04-25T14:42:39;0.40;;;0.40;;
22965;SDS011;11649;48.090;9.754;2023-04-25T14:45:07;0.30;;;0.30;;
22965;SDS011;11649;48.090;9.754;2023-04-25T14:47:36;0.40;;;0.40;;
22965;SDS011;11649;48.090;9.754;2023-04-25T14:50:03;8.30;;;0.50;;
22965;SDS011;11649;48.090;9.754;2023-04-25T14:52:31;0.70;;;0.70;;
22965;SDS011;11649;48.090;9.754;2023-04-25T14:54:58;0.65;;;0.65;;
22965;SDS011;11649;48.090;9.754;2023-04-25T14:57:26;0.70;;;0.70;;
22965;SDS011;11649;48.090;9.754;2023-04-25T14:59:53;0.65;;;0.65;;
22965;SDS011;11649;48.090;9.754;2023-04-25T15:02:19;1.02;;;0.90;;
22965;SDS011;11649;48.090;9.754;2023-04-25T15:04:46;2.33;;;0.70;;
22965;SDS011;11649;48.090;9.754;2023-04-25T15:07:13;1.00;;;0.90;;
22965;SDS011;11649;48.090;9.754;2023-04-25T15:09:43;0.90;;;0.90;;